createdAt,value
2024-04-14T00:00:50.546Z,90.50
2024-04-14T00:03:20.228Z,90.50
2024-04-14T00:05:47.316Z,90.60
2024-04-14T00:08:14.276Z,90.70
2024-04-14T00:10:41.412Z,90.80
2024-04-14T00:13:08.378Z,90.90
2024-04-14T00:15:35.737Z,90.90
2024-04-14T00:18:59.164Z,91.00
2024-04-14T00:21:26.674Z,91.10
2024-04-14T00:23:53.630Z,91.10
2024-04-14T00:26:20.601Z,91.20
2024-04-14T00:28:47.584Z,91.30
2024-04-14T00:31:14.523Z,91.40
2024-04-14T00:33:41.484Z,91.40
2024-04-14T00:36:09.997Z,91.50
2024-04-14T00:38:37.092Z,91.60
2024-04-14T00:41:04.491Z,91.60
2024-04-14T00:43:31.648Z,91.70
2024-04-14T00:45:58.696Z,91.70
2024-04-14T00:48:25.874Z,92.10
2024-04-14T00:50:52.896Z,91.90
2024-04-14T00:53:20.373Z,91.90
2024-04-14T00:55:50.511Z,92.00
2024-04-14T00:58:17.857Z,92.10
2024-04-14T01:00:48.044Z,92.10
2024-04-14T01:03:15.297Z,92.20
2024-04-14T01:05:42.325Z,92.20
2024-04-14T01:08:09.541Z,92.40
2024-04-14T01:10:36.811Z,92.40
2024-04-14T01:13:04.412Z,92.50
2024-04-14T01:15:32.585Z,92.50
2024-04-14T01:17:59.684Z,92.60
2024-04-14T01:20:28.425Z,92.60
2024-04-14T01:22:55.505Z,92.70
2024-04-14T01:25:23.606Z,92.70
2024-04-14T01:27:50.670Z,92.80
2024-04-14T01:30:17.781Z,92.80
2024-04-14T01:32:44.786Z,92.90
2024-04-14T01:35:11.764Z,93.00
2024-04-14T01:37:38.670Z,93.00
2024-04-14T01:40:06.902Z,93.10
2024-04-14T01:42:34.560Z,93.20
2024-04-14T01:45:04.620Z,93.30
2024-04-14T01:47:31.632Z,93.40
2024-04-14T01:49:58.812Z,93.40
2024-04-14T01:52:26.002Z,93.50
2024-04-14T01:54:53.017Z,93.50
2024-04-14T01:57:20.202Z,93.60
2024-04-14T01:59:47.371Z,93.70
2024-04-14T02:02:14.349Z,93.70
2024-04-14T02:04:41.633Z,93.80
2024-04-14T02:07:08.745Z,93.80
2024-04-14T02:09:35.729Z,93.90
2024-04-14T02:12:03.099Z,93.90
2024-04-14T02:14:30.008Z,94.00
2024-04-14T02:16:57.128Z,94.10
2024-04-14T02:19:24.262Z,94.10
2024-04-14T02:21:51.311Z,94.20
2024-04-14T02:24:18.291Z,94.20
2024-04-14T02:26:45.661Z,94.30
2024-04-14T02:29:12.853Z,94.30
2024-04-14T02:31:39.967Z,94.40
2024-04-14T02:34:07.235Z,94.40
2024-04-14T02:36:34.276Z,94.50
2024-04-14T02:39:03.029Z,94.50
2024-04-14T02:41:29.981Z,94.60
2024-04-14T02:43:57.041Z,94.70
2024-04-14T02:46:24.095Z,94.70
2024-04-14T02:48:51.479Z,94.80
2024-04-14T02:51:18.705Z,94.80
2024-04-14T02:53:45.628Z,94.90
2024-04-14T02:56:12.505Z,95.00
2024-04-14T02:58:39.559Z,95.00
2024-04-14T03:01:06.763Z,95.30
2024-04-14T03:03:33.813Z,95.30
2024-04-14T03:06:04.904Z,95.10
2024-04-14T03:08:32.390Z,95.20
2024-04-14T03:10:59.725Z,95.20
2024-04-14T03:13:26.943Z,95.30
2024-04-14T03:15:54.396Z,95.30
2024-04-14T03:18:21.622Z,95.30
2024-04-14T03:20:58.670Z,95.40
2024-04-14T03:23:26.200Z,95.40
2024-04-14T03:25:53.674Z,95.40
2024-04-14T03:28:22.915Z,95.50
2024-04-14T03:30:49.936Z,95.50
2024-04-14T03:33:17.009Z,95.60
2024-04-14T03:35:43.957Z,95.60
2024-04-14T03:38:10.934Z,95.60
2024-04-14T03:40:37.834Z,95.40
2024-04-14T03:43:05.244Z,95.70
2024-04-14T03:45:34.073Z,95.70
2024-04-14T03:48:01.242Z,95.80
2024-04-14T03:50:28.342Z,95.80
2024-04-14T03:52:55.229Z,95.80
2024-04-14T03:55:22.237Z,95.90
2024-04-14T03:57:49.275Z,95.90
2024-04-14T04:00:16.450Z,96.00
2024-04-14T04:02:43.509Z,96.00
2024-04-14T04:05:10.590Z,96.30
2024-04-14T04:07:37.477Z,96.00
2024-04-14T04:10:04.969Z,96.10
2024-04-14T04:12:32.049Z,96.10
2024-04-14T04:14:59.185Z,96.10
2024-04-14T04:17:26.152Z,96.20
2024-04-14T04:19:53.378Z,96.20
2024-04-14T04:22:20.307Z,96.30
2024-04-14T04:24:47.286Z,96.30
2024-04-14T04:27:14.259Z,96.30
2024-04-14T04:29:41.236Z,96.30
2024-04-14T04:32:08.093Z,96.30
2024-04-14T04:34:35.058Z,96.30
2024-04-14T04:37:02.207Z,96.30
2024-04-14T04:39:29.369Z,96.30
2024-04-14T04:41:56.329Z,96.30
2024-04-14T04:44:23.275Z,96.30
2024-04-14T04:46:50.174Z,96.30
2024-04-14T04:49:17.092Z,96.30
2024-04-14T04:51:44.271Z,96.40
2024-04-14T04:54:11.195Z,96.40
2024-04-14T04:56:38.072Z,96.40
2024-04-14T04:59:04.981Z,96.70
2024-04-14T05:01:32.011Z,96.50
2024-04-14T05:03:59.053Z,96.60
2024-04-14T05:06:26.166Z,96.60
2024-04-14T05:08:53.187Z,96.60
2024-04-14T05:11:20.208Z,96.70
2024-04-14T05:13:49.759Z,96.70
2024-04-14T05:16:16.846Z,96.80
2024-04-14T05:18:43.942Z,96.80
2024-04-14T05:21:11.395Z,96.80
2024-04-14T05:23:38.425Z,96.90
2024-04-14T05:26:05.633Z,96.90
2024-04-14T05:28:32.575Z,97.00
2024-04-14T05:30:59.563Z,97.00
2024-04-14T05:33:26.583Z,97.00
2024-04-14T05:35:57.304Z,97.00
2024-04-14T05:38:24.386Z,97.10
2024-04-14T05:40:51.565Z,97.10
2024-04-14T05:43:18.560Z,97.10
2024-04-14T05:45:45.954Z,97.10
2024-04-14T05:48:13.870Z,97.10
2024-04-14T05:50:41.132Z,97.10
2024-04-14T05:53:08.326Z,97.20
2024-04-14T05:55:35.286Z,97.20
2024-04-14T05:58:02.333Z,97.30
2024-04-14T06:00:29.537Z,97.30
2024-04-14T06:02:56.864Z,97.30
2024-04-14T06:05:23.803Z,97.30
2024-04-14T06:07:50.944Z,97.30
2024-04-14T06:10:18.046Z,97.30
2024-04-14T06:12:44.979Z,97.40
2024-04-14T06:15:11.925Z,97.40
2024-04-14T06:17:39.324Z,97.40
2024-04-14T06:20:07.859Z,97.40
2024-04-14T06:22:34.892Z,97.40
2024-04-14T06:25:02.056Z,97.40
2024-04-14T06:27:32.390Z,97.40
2024-04-14T06:30:02.306Z,97.40
2024-04-14T06:32:29.396Z,97.40
2024-04-14T06:34:59.417Z,97.40
2024-04-14T06:37:26.408Z,97.40
2024-04-14T06:39:53.916Z,97.40
2024-04-14T06:42:20.875Z,97.40
2024-04-14T06:44:47.730Z,97.40
2024-04-14T06:47:14.697Z,97.40
2024-04-14T06:49:41.617Z,97.30
2024-04-14T06:52:08.712Z,97.30
2024-04-14T06:54:35.758Z,97.30
2024-04-14T06:57:06.260Z,97.30
2024-04-14T06:59:33.317Z,97.30
2024-04-14T07:02:01.601Z,97.20
2024-04-14T07:04:31.375Z,97.20
2024-04-14T07:06:58.603Z,97.10
2024-04-14T07:09:28.463Z,97.10
2024-04-14T07:12:11.182Z,97.10
2024-04-14T07:14:39.490Z,97.00
2024-04-14T07:17:06.517Z,97.00
2024-04-14T07:19:47.780Z,97.00
2024-04-14T07:22:18.197Z,96.90
2024-04-14T07:25:03.742Z,96.90
2024-04-14T07:27:37.171Z,96.80
2024-04-14T07:30:05.887Z,96.70
2024-04-14T07:32:35.783Z,96.60
2024-04-14T07:35:10.280Z,96.50
2024-04-14T07:37:38.679Z,96.30
2024-04-14T07:40:06.205Z,96.00
2024-04-14T07:42:33.295Z,95.90
2024-04-14T07:45:05.892Z,95.70
2024-04-14T07:47:32.857Z,95.50
2024-04-14T07:49:59.778Z,95.40
2024-04-14T07:52:29.547Z,95.20
2024-04-14T07:54:58.799Z,95.00
2024-04-14T07:57:25.824Z,94.70
2024-04-14T07:59:52.798Z,94.60
2024-04-14T08:02:19.687Z,94.30
2024-04-14T08:04:46.821Z,94.10
2024-04-14T08:07:21.387Z,94.00
2024-04-14T08:09:51.129Z,93.90
2024-04-14T08:12:18.076Z,93.70
2024-04-14T08:14:44.962Z,93.50
2024-04-14T08:17:56.594Z,93.40
2024-04-14T08:20:24.042Z,93.20
2024-04-14T08:22:50.969Z,93.20
2024-04-14T08:25:18.017Z,93.20
2024-04-14T08:27:45.017Z,93.00
2024-04-14T08:30:12.135Z,92.90
2024-04-14T08:32:39.134Z,92.60
2024-04-14T08:35:06.920Z,92.40
2024-04-14T08:37:33.883Z,92.20
2024-04-14T08:40:01.169Z,92.10
2024-04-14T08:42:29.167Z,91.90
2024-04-14T08:44:56.238Z,91.70
2024-04-14T08:47:23.227Z,91.50
2024-04-14T08:49:50.272Z,91.40
2024-04-14T08:52:17.291Z,91.30
2024-04-14T08:54:44.460Z,91.20
2024-04-14T08:57:12.312Z,91.00
2024-04-14T08:59:42.021Z,90.90
2024-04-14T09:02:10.225Z,91.00
2024-04-14T09:04:37.162Z,90.70
2024-04-14T09:07:04.325Z,90.60
2024-04-14T09:09:31.263Z,90.40
2024-04-14T09:11:59.915Z,90.20
2024-04-14T09:14:26.856Z,89.70
2024-04-14T09:16:53.963Z,89.30
2024-04-14T09:19:21.250Z,89.20
2024-04-14T09:21:48.426Z,88.90
2024-04-14T09:24:15.663Z,88.00
2024-04-14T09:26:44.466Z,87.40
2024-04-14T09:29:11.714Z,86.80
2024-04-14T09:31:38.947Z,86.40
2024-04-14T09:34:06.283Z,86.10
2024-04-14T09:36:33.568Z,85.30
2024-04-14T09:39:00.722Z,84.20
2024-04-14T09:41:27.663Z,83.50
2024-04-14T09:43:55.813Z,83.20
2024-04-14T09:46:22.788Z,82.60
2024-04-14T09:48:49.796Z,82.30
2024-04-14T09:51:16.779Z,81.90
2024-04-14T09:53:43.824Z,81.60
2024-04-14T09:56:10.944Z,81.60
2024-04-14T09:58:37.912Z,81.30
2024-04-14T10:01:09.916Z,80.60
2024-04-14T10:03:37.115Z,79.90
2024-04-14T10:06:04.595Z,79.60
2024-04-14T10:08:34.915Z,79.10
2024-04-14T10:11:08.033Z,78.70
2024-04-14T10:13:50.289Z,77.90
2024-04-14T10:16:23.949Z,77.40
2024-04-14T10:18:53.682Z,77.30
2024-04-14T10:21:23.369Z,76.90
2024-04-14T10:23:51.465Z,75.90
2024-04-14T10:26:18.888Z,74.90
2024-04-14T10:28:56.022Z,74.00
2024-04-14T10:31:32.522Z,73.80
2024-04-14T10:34:06.876Z,73.60
2024-04-14T10:36:36.028Z,72.90
2024-04-14T10:39:03.686Z,72.80
2024-04-14T10:41:30.778Z,71.90
2024-04-14T10:43:57.751Z,70.90
2024-04-14T10:46:24.791Z,70.50
2024-04-14T10:48:51.729Z,70.10
2024-04-14T10:51:21.956Z,70.20
2024-04-14T10:53:49.793Z,69.20
2024-04-14T10:56:16.729Z,68.80
2024-04-14T10:58:44.276Z,68.10
2024-04-14T11:01:11.313Z,67.50
2024-04-14T11:03:38.701Z,67.20
2024-04-14T11:06:05.863Z,66.80
2024-04-14T11:08:35.705Z,66.00
2024-04-14T11:11:02.801Z,65.80
2024-04-14T11:13:30.909Z,65.10
2024-04-14T11:16:01.661Z,64.50
2024-04-14T11:18:32.351Z,64.10
2024-04-14T11:21:05.755Z,64.30
2024-04-14T11:23:32.702Z,63.30
2024-04-14T11:25:59.768Z,62.90
2024-04-14T11:28:26.756Z,62.30
2024-04-14T11:30:57.496Z,61.70
2024-04-14T11:33:24.705Z,60.70
2024-04-14T11:36:01.338Z,60.20
2024-04-14T11:38:30.746Z,59.60
2024-04-14T11:40:57.944Z,60.00
2024-04-14T11:43:27.507Z,59.90
2024-04-14T11:45:54.467Z,59.70
2024-04-14T11:48:25.517Z,59.40
2024-04-14T11:50:53.476Z,59.10
2024-04-14T11:53:23.138Z,58.70
2024-04-14T11:55:50.123Z,58.80
2024-04-14T11:58:21.081Z,58.50
2024-04-14T12:00:49.905Z,58.10
2024-04-14T12:03:22.312Z,57.90
2024-04-14T12:05:49.664Z,57.70
2024-04-14T12:08:16.822Z,57.50
2024-04-14T12:10:44.648Z,57.10
2024-04-14T12:13:11.868Z,56.40
2024-04-14T12:15:41.836Z,56.10
2024-04-14T12:18:11.232Z,55.50
2024-04-14T12:20:38.821Z,55.20
2024-04-14T12:23:05.901Z,55.00
2024-04-14T12:25:36.225Z,54.70
2024-04-14T12:28:03.308Z,54.40
2024-04-14T12:30:36.233Z,54.50
2024-04-14T12:33:10.313Z,54.20
2024-04-14T12:35:37.251Z,54.30
2024-04-14T12:38:09.863Z,54.30
2024-04-14T12:40:38.599Z,53.70
2024-04-14T12:43:05.885Z,53.60
2024-04-14T12:45:37.778Z,54.00
2024-04-14T12:48:06.337Z,53.90
2024-04-14T12:50:40.502Z,53.90
2024-04-14T12:53:11.858Z,54.10
2024-04-14T12:55:38.890Z,54.00
2024-04-14T12:58:06.050Z,53.70
2024-04-14T13:00:32.988Z,54.20
2024-04-14T13:03:00.028Z,53.30
2024-04-14T13:05:27.143Z,53.20
2024-04-14T13:07:54.100Z,53.50
2024-04-14T13:10:21.111Z,53.30
2024-04-14T13:12:48.625Z,53.20
2024-04-14T13:15:15.837Z,53.10
2024-04-14T13:18:49.912Z,52.90
2024-04-14T13:21:21.336Z,53.10
2024-04-14T13:23:49.688Z,53.20
2024-04-14T13:26:16.829Z,52.90
2024-04-14T13:28:43.887Z,52.70
2024-04-14T13:31:11.249Z,52.50
2024-04-14T13:33:41.221Z,52.30
2024-04-14T13:36:08.494Z,52.00
2024-04-14T13:38:35.580Z,52.00
2024-04-14T13:41:03.479Z,52.10
2024-04-14T13:43:30.570Z,51.70
2024-04-14T13:46:00.236Z,51.70
2024-04-14T13:48:27.453Z,51.30
2024-04-14T13:50:54.532Z,51.10
2024-04-14T13:53:21.667Z,50.60
2024-04-14T13:55:48.777Z,50.50
2024-04-14T13:58:21.428Z,50.60
2024-04-14T14:00:49.319Z,50.70
2024-04-14T14:03:16.565Z,50.90
2024-04-14T14:05:43.739Z,50.70
2024-04-14T14:08:11.189Z,50.60
2024-04-14T14:10:38.078Z,50.80
2024-04-14T14:13:06.172Z,50.60
2024-04-14T14:15:33.342Z,50.50
2024-04-14T14:18:00.288Z,50.10
2024-04-14T14:20:27.191Z,50.00
2024-04-14T14:22:54.115Z,49.90
2024-04-14T14:25:21.147Z,49.80
2024-04-14T14:27:48.252Z,49.70
2024-04-14T14:30:15.936Z,50.00
2024-04-14T14:32:42.944Z,50.00
2024-04-14T14:35:28.355Z,49.70
2024-04-14T14:37:55.289Z,49.70
2024-04-14T14:40:22.276Z,49.60
2024-04-14T14:42:49.423Z,49.50
2024-04-14T14:45:16.458Z,49.50
2024-04-14T14:47:45.123Z,49.60
2024-04-14T14:50:12.122Z,49.60
2024-04-14T14:52:39.211Z,49.70
2024-04-14T14:55:07.152Z,49.90
2024-04-14T14:57:34.310Z,49.90
2024-04-14T15:00:01.399Z,49.70
2024-04-14T15:02:28.368Z,49.70
2024-04-14T15:04:55.443Z,49.80
2024-04-14T15:07:22.918Z,49.80
2024-04-14T15:09:56.261Z,50.00
2024-04-14T15:12:23.551Z,49.90
2024-04-14T15:14:50.480Z,50.00
2024-04-14T15:17:17.502Z,50.10
2024-04-14T15:19:45.615Z,50.10
2024-04-14T15:22:18.065Z,50.10
2024-04-14T15:24:46.155Z,50.10
2024-04-14T15:27:15.585Z,50.20
2024-04-14T15:29:42.768Z,50.20
2024-04-14T15:32:12.373Z,50.10
2024-04-14T15:34:39.260Z,50.10
2024-04-14T15:37:06.363Z,50.10
2024-04-14T15:39:33.360Z,50.30
2024-04-14T15:42:00.294Z,50.40
2024-04-14T15:44:27.846Z,50.50
2024-04-14T15:46:55.118Z,50.60
2024-04-14T15:52:02.785Z,50.90
2024-04-14T15:54:29.658Z,51.00
2024-04-14T15:56:56.653Z,51.30
2024-04-14T15:59:23.545Z,51.50
2024-04-14T16:01:50.462Z,51.70
2024-04-14T16:04:17.476Z,51.80
2024-04-14T16:06:44.543Z,51.80
2024-04-14T16:09:11.533Z,52.00
2024-04-14T16:11:38.499Z,52.10
2024-04-14T16:14:05.662Z,52.20
2024-04-14T16:16:32.865Z,52.30
2024-04-14T16:18:59.859Z,52.30
2024-04-14T16:21:27.171Z,52.40
2024-04-14T16:23:54.130Z,52.60
2024-04-14T16:26:21.111Z,52.60
2024-04-14T16:28:48.031Z,52.80
2024-04-14T16:31:15.464Z,52.90
2024-04-14T16:33:43.297Z,53.00
2024-04-14T16:36:12.128Z,53.10
2024-04-14T16:38:39.312Z,53.20
2024-04-14T16:41:07.416Z,53.40
2024-04-14T16:43:34.384Z,53.50
2024-04-14T16:46:01.450Z,53.50
2024-04-14T16:48:29.068Z,53.60
2024-04-14T16:50:56.353Z,53.70
2024-04-14T16:53:23.356Z,53.80
2024-04-14T16:55:50.569Z,53.80
2024-04-14T16:58:17.889Z,53.90
2024-04-14T17:00:45.461Z,54.10
2024-04-14T17:03:12.519Z,54.20
2024-04-14T17:05:40.031Z,54.30
2024-04-14T17:08:07.479Z,54.30
2024-04-14T17:10:34.379Z,54.50
2024-04-14T17:13:01.460Z,54.60
2024-04-14T17:15:28.594Z,54.60
2024-04-14T17:18:09.087Z,54.80
2024-04-14T17:20:40.695Z,54.60
2024-04-14T17:23:10.581Z,55.10
2024-04-14T17:25:37.862Z,55.10
2024-04-14T17:28:05.025Z,55.20
2024-04-14T17:30:32.133Z,55.30
2024-04-14T17:32:59.122Z,55.40
2024-04-14T17:35:26.086Z,55.60
2024-04-14T17:37:53.189Z,55.80
2024-04-14T17:40:20.872Z,55.90
2024-04-14T17:42:48.387Z,55.90
2024-04-14T17:45:21.003Z,55.80
2024-04-14T17:47:48.815Z,55.90
2024-04-14T17:50:19.849Z,56.10
2024-04-14T17:52:47.028Z,56.20
2024-04-14T17:55:14.118Z,56.30
2024-04-14T17:57:41.154Z,56.40
2024-04-14T18:00:08.715Z,56.50
2024-04-14T18:02:35.711Z,56.70
2024-04-14T18:05:02.683Z,56.80
2024-04-14T18:07:29.680Z,57.50
2024-04-14T18:09:56.646Z,57.10
2024-04-14T18:12:24.900Z,57.30
2024-04-14T18:14:55.212Z,57.40
2024-04-14T18:17:22.268Z,57.60
2024-04-14T18:19:49.384Z,57.70
2024-04-14T18:22:16.370Z,57.70
2024-04-14T18:24:43.944Z,58.00
2024-04-14T18:27:11.755Z,58.10
2024-04-14T18:29:39.554Z,58.20
2024-04-14T18:32:06.804Z,58.40
2024-04-14T18:34:33.774Z,58.50
2024-04-14T18:37:00.944Z,58.60
2024-04-14T18:39:28.437Z,58.80
2024-04-14T18:41:55.285Z,58.90
2024-04-14T18:44:22.316Z,59.00
2024-04-14T18:46:49.346Z,59.20
2024-04-14T18:49:16.323Z,59.30
2024-04-14T18:51:43.388Z,59.50
2024-04-14T18:54:10.294Z,59.70
2024-04-14T18:56:37.261Z,59.90
2024-04-14T18:59:04.298Z,60.00
2024-04-14T19:01:31.315Z,60.10
2024-04-14T19:04:01.552Z,60.10
2024-04-14T19:06:28.524Z,60.30
2024-04-14T19:08:55.522Z,60.50
2024-04-14T19:11:22.498Z,60.70
2024-04-14T19:13:49.629Z,60.80
2024-04-14T19:16:17.578Z,60.90
2024-04-14T19:18:44.677Z,61.00
2024-04-14T19:21:11.641Z,61.20
2024-04-14T19:23:38.757Z,61.30
2024-04-14T19:26:10.231Z,61.40
2024-04-14T19:28:37.403Z,61.50
2024-04-14T19:31:04.530Z,61.60
2024-04-14T19:33:31.893Z,61.70
2024-04-14T19:35:59.047Z,61.20
2024-04-14T19:38:27.820Z,61.80
2024-04-14T19:40:55.544Z,61.90
2024-04-14T19:43:22.898Z,61.90
2024-04-14T19:45:49.985Z,62.00
2024-04-14T19:48:16.995Z,62.10
2024-04-14T19:50:44.169Z,62.20
2024-04-14T19:53:11.251Z,62.90
2024-04-14T19:55:38.672Z,62.30
2024-04-14T19:58:05.688Z,62.40
2024-04-14T20:00:33.068Z,62.50
2024-04-14T20:03:00.203Z,62.70
2024-04-14T20:05:27.276Z,62.70
2024-04-14T20:07:57.074Z,62.80
2024-04-14T20:10:24.368Z,62.90
2024-04-14T20:12:51.520Z,63.10
2024-04-14T20:15:21.199Z,63.20
2024-04-14T20:17:48.272Z,63.20
2024-04-14T20:20:15.420Z,63.20
2024-04-14T20:22:42.896Z,63.20
2024-04-14T20:25:10.049Z,63.10
2024-04-14T20:27:37.321Z,63.10
2024-04-14T20:30:05.013Z,63.10
2024-04-14T20:32:32.021Z,63.10
2024-04-14T20:34:58.974Z,63.10
2024-04-14T20:37:25.866Z,63.20
2024-04-14T20:39:53.824Z,63.10
2024-04-14T20:42:23.479Z,63.20
2024-04-14T20:44:50.555Z,63.10
2024-04-14T20:47:21.506Z,63.10
2024-04-14T20:49:50.645Z,63.10
2024-04-14T20:52:19.245Z,63.10
2024-04-14T20:54:47.705Z,63.20
2024-04-14T20:57:17.610Z,63.20
2024-04-14T20:59:45.087Z,63.30
2024-04-14T21:02:12.006Z,63.30
2024-04-14T21:04:45.816Z,63.40
2024-04-14T21:07:16.967Z,63.50
2024-04-14T21:09:44.081Z,63.50
2024-04-14T21:12:11.258Z,63.60
2024-04-14T21:14:38.559Z,63.70
2024-04-14T21:17:05.581Z,63.80
2024-04-14T21:19:35.688Z,63.90
2024-04-14T21:22:02.914Z,63.90
2024-04-14T21:24:30.143Z,64.00
2024-04-14T21:26:57.150Z,64.10
2024-04-14T21:29:24.080Z,64.20
2024-04-14T21:31:52.250Z,64.30
2024-04-14T21:34:19.313Z,64.40
2024-04-14T21:36:48.348Z,64.40
2024-04-14T21:39:15.346Z,64.50
2024-04-14T21:41:42.299Z,64.60
2024-04-14T21:44:09.257Z,64.70
2024-04-14T21:46:36.310Z,64.80
2024-04-14T21:49:04.717Z,64.90
2024-04-14T21:51:31.735Z,65.00
2024-04-14T21:53:58.682Z,65.10
2024-04-14T21:56:25.728Z,65.30
2024-04-14T21:58:52.711Z,65.40
2024-04-14T22:01:19.818Z,65.50
2024-04-14T22:03:47.130Z,65.70
2024-04-14T22:06:14.450Z,65.80
2024-04-14T22:08:41.837Z,66.00
2024-04-14T22:11:09.620Z,66.10
2024-04-14T22:13:37.189Z,66.30
2024-04-14T22:16:04.652Z,66.40
2024-04-14T22:18:31.901Z,66.60
2024-04-14T22:20:59.249Z,66.70
2024-04-14T22:23:26.396Z,67.50
2024-04-14T22:25:53.580Z,67.10
2024-04-14T22:28:20.528Z,67.30
2024-04-14T22:30:47.711Z,67.50
2024-04-14T22:33:14.700Z,67.60
2024-04-14T22:35:42.448Z,67.90
2024-04-14T22:38:09.613Z,68.10
2024-04-14T22:40:36.768Z,68.30
2024-04-14T22:43:03.940Z,68.50
2024-04-14T22:45:31.037Z,68.70
2024-04-14T22:47:58.122Z,68.90
2024-04-14T22:50:25.097Z,69.10
2024-04-14T22:52:52.012Z,69.30
2024-04-14T22:55:19.384Z,69.50
2024-04-14T22:57:46.332Z,69.80
2024-04-14T23:00:13.481Z,70.00
2024-04-14T23:02:40.438Z,70.20
2024-04-14T23:05:07.643Z,70.40
2024-04-14T23:07:34.613Z,70.60
2024-04-14T23:10:01.809Z,70.80
2024-04-14T23:12:28.905Z,71.10
2024-04-14T23:14:55.807Z,71.30
2024-04-14T23:17:23.102Z,71.60
2024-04-14T23:19:50.182Z,71.70
2024-04-14T23:22:17.476Z,71.90
2024-04-14T23:24:44.749Z,72.10
2024-04-14T23:27:11.905Z,72.40
2024-04-14T23:29:38.835Z,72.60
2024-04-14T23:32:06.407Z,72.80
2024-04-14T23:34:33.502Z,73.00
2024-04-14T23:37:01.639Z,73.10
2024-04-14T23:39:28.805Z,73.30
2024-04-14T23:41:57.720Z,73.50
2024-04-14T23:44:24.640Z,73.70
2024-04-14T23:46:51.573Z,74.00
2024-04-14T23:49:25.887Z,74.20
2024-04-14T23:51:52.932Z,74.40
2024-04-14T23:54:19.924Z,74.70
2024-04-14T23:56:46.812Z,74.90
2024-04-14T23:59:13.778Z,75.10
